Wetterdaten: Woche 05.02.07 - 11.02.07 (KW6)
Datum Zeit Temperatur Luftfeuchte Luftdruck Niederschlag Wind Richtung Sonnenschein UV-Strahlung Solar Taupunkt Windchill Windben
05.02.2007 00:00 -1.1 C 93 % 1026.3 hPa 0.0 l/m 2.5 km/h (1 Bft) O 0.00 h 0.0 UV-I 0 W/m -2.0 C -1.3 C 4.2 km/h (1 Bft)
05.02.2007 01:00 -0.8 C 93 % 1025.5 hPa 0.0 l/m 4.0 km/h (1 Bft) SO 0.00 h 0.0 UV-I 0 W/m -1.8 C -1.6 C 6.1 km/h (2 Bft)
05.02.2007 02:00 -0.9 C 92 % 1025.0 hPa 0.0 l/m 3.3 km/h (1 Bft) O-SO 0.00 h 0.0 UV-I 0 W/m -2.0 C -1.4 C 5.3 km/h (1 Bft)
05.02.2007 03:00 -0.4 C 90 % 1024.4 hPa 0.0 l/m 0.5 km/h (0 Bft) SO 0.00 h 0.0 UV-I 0 W/m -1.7 C -0.4 C 1.9 km/h (1 Bft)
05.02.2007 04:00 -0.2 C 90 % 1024.0 hPa 0.0 l/m 0.3 km/h (0 Bft) O-SO 0.00 h 0.0 UV-I 0 W/m -1.7 C -0.2 C 1.4 km/h (1 Bft)
05.02.2007 05:00 0.2 C 89 % 1023.9 hPa 0.0 l/m 1.3 km/h (1 Bft) S 0.00 h 0.0 UV-I 0 W/m -1.5 C 0.1 C 3.8 km/h (1 Bft)
05.02.2007 06:00 0.3 C 88 % 1023.5 hPa 0.0 l/m 0.7 km/h (0 Bft) S-SO 0.00 h 0.0 UV-I 0 W/m -1.4 C 0.3 C 2.4 km/h (1 Bft)
05.02.2007 07:00 -1.0 C 91 % 1023.1 hPa 0.0 l/m 0.3 km/h (0 Bft) O 0.00 h 0.0 UV-I 7 W/m -2.2 C -1.0 C 0.8 km/h (0 Bft)
05.02.2007 08:00 -0.7 C 92 % 1022.6 hPa 0.0 l/m 0.7 km/h (0 Bft) O-SO 0.02 h 0.0 UV-I 33 W/m -1.9 C -0.7 C 1.7 km/h (1 Bft)
05.02.2007 09:00 0.7 C 89 % 1022.2 hPa 0.2 l/m 1.1 km/h (0 Bft) O-SO 0.50 h 0.6 UV-I 150 W/m -1.0 C 0.6 C 2.5 km/h (1 Bft)
05.02.2007 10:00 2.9 C 82 % 1021.5 hPa 0.0 l/m 3.7 km/h (1 Bft) S 0.70 h 1.0 UV-I 220 W/m 0.1 C 2.3 C 8.0 km/h (2 Bft)
05.02.2007 11:00 4.4 C 77 % 1020.3 hPa 0.0 l/m 5.8 km/h (2 Bft) S-SO 0.75 h 1.3 UV-I 301 W/m 0.7 C 3.3 C 11.6 km/h (2 Bft)
05.02.2007 12:00 6.8 C 70 % 1018.9 hPa 0.0 l/m 7.6 km/h (2 Bft) S 1.00 h 1.5 UV-I 384 W/m 1.7 C 5.5 C 14.0 km/h (3 Bft)
05.02.2007 13:00 9.2 C 64 % 1017.3 hPa 0.0 l/m 12.7 km/h (3 Bft) W 1.00 h 1.4 UV-I 354 W/m 2.7 C 7.3 C 19.7 km/h (3 Bft)
05.02.2007 14:00 9.3 C 62 % 1016.0 hPa 0.0 l/m 12.0 km/h (2 Bft) W-SW 0.53 h 1.0 UV-I 235 W/m 2.5 C 7.6 C 19.7 km/h (3 Bft)
05.02.2007 15:00 8.3 C 66 % 1015.6 hPa 0.0 l/m 3.9 km/h (1 Bft) S-SW 0.00 h 0.6 UV-I 124 W/m 2.3 C 8.0 C 7.6 km/h (2 Bft)
05.02.2007 16:00 8.2 C 68 % 1015.0 hPa 0.0 l/m 6.2 km/h (2 Bft) S 0.00 h 0.5 UV-I 54 W/m 2.7 C 7.4 C 10.2 km/h (2 Bft)
05.02.2007 17:00 8.0 C 69 % 1014.7 hPa 0.0 l/m 9.0 km/h (2 Bft) W 0.00 h 0.0 UV-I 13 W/m 2.8 C 6.5 C 14.5 km/h (3 Bft)
05.02.2007 18:00 6.9 C 73 % 1014.4 hPa 0.0 l/m 5.3 km/h (1 Bft) W-SW 0.00 h 0.0 UV-I 0 W/m 2.4 C 6.1 C 8.9 km/h (2 Bft)
05.02.2007 19:00 6.6 C 74 % 1014.2 hPa 0.0 l/m 4.2 km/h (1 Bft) W-SW 0.00 h 0.0 UV-I 0 W/m 2.2 C 6.2 C 7.6 km/h (2 Bft)
05.02.2007 20:00 6.1 C 78 % 1013.7 hPa 0.2 l/m 3.6 km/h (1 Bft) S 0.00 h 0.0 UV-I 0 W/m 2.6 C 5.7 C 6.9 km/h (2 Bft)
05.02.2007 21:00 5.4 C 89 % 1013.5 hPa 1.4 l/m 4.3 km/h (1 Bft) W 0.00 h 0.0 UV-I 0 W/m 3.7 C 4.7 C 8.0 km/h (2 Bft)
05.02.2007 22:00 5.5 C 91 % 1013.2 hPa 3.0 l/m 12.9 km/h (3 Bft) W-NW 0.00 h 0.0 UV-I 0 W/m 4.2 C 2.8 C 20.2 km/h (4 Bft)
05.02.2007 23:00 5.2 C 93 % 1012.5 hPa 2.4 l/m 14.0 km/h (3 Bft) W-NW 0.00 h 0.0 UV-I 0 W/m 4.1 C 2.2 C 21.3 km/h (4 Bft)
06.02.2007 00:00 5.0 C 93 % 1011.5 hPa 1.4 l/m 11.1 km/h (2 Bft) W 0.00 h 0.0 UV-I 0 W/m 3.9 C 2.6 C 17.0 km/h (3 Bft)
06.02.2007 01:00 4.8 C 94 % 1010.6 hPa 1.0 l/m 6.8 km/h (2 Bft) W 0.00 h 0.0 UV-I 0 W/m 3.9 C 3.3 C 10.9 km/h (2 Bft)
06.02.2007 02:00 4.7 C 94 % 1010.0 hPa 0.4 l/m 6.2 km/h (2 Bft) W 0.00 h 0.0 UV-I 0 W/m 3.8 C 3.4 C 10.1 km/h (2 Bft)
06.02.2007 03:00 4.6 C 94 % 1009.2 hPa 0.2 l/m 9.0 km/h (2 Bft) W 0.00 h 0.0 UV-I 0 W/m 3.8 C 2.7 C 14.4 km/h (3 Bft)
06.02.2007 04:00 4.1 C 92 % 1008.6 hPa 0.4 l/m 10.2 km/h (2 Bft) W 0.00 h 0.0 UV-I 0 W/m 2.9 C 1.5 C 16.0 km/h (3 Bft)
06.02.2007 05:00 3.6 C 93 % 1008.3 hPa 0.2 l/m 8.2 km/h (2 Bft) W 0.00 h 0.0 UV-I 0 W/m 2.6 C 1.6 C 13.0 km/h (3 Bft)
06.02.2007 06:00 3.3 C 93 % 1008.1 hPa 0.0 l/m 3.1 km/h (1 Bft) W-NW 0.00 h 0.0 UV-I 0 W/m 2.2 C 2.9 C 5.6 km/h (1 Bft)
06.02.2007 07:00 3.0 C 92 % 1007.9 hPa 0.0 l/m 4.1 km/h (1 Bft) SW 0.00 h 0.0 UV-I 0 W/m 1.8 C 2.3 C 7.4 km/h (2 Bft)
06.02.2007 08:00 2.8 C 92 % 1007.8 hPa 0.0 l/m 3.2 km/h (1 Bft) SW 0.00 h 0.0 UV-I 15 W/m 1.7 C 2.3 C 6.5 km/h (2 Bft)
06.02.2007 09:00 2.8 C 91 % 1007.7 hPa 0.0 l/m 0.9 km/h (0 Bft) W 0.00 h 0.0 UV-I 32 W/m 1.5 C 2.8 C 2.3 km/h (1 Bft)
06.02.2007 10:00 2.8 C 91 % 1007.7 hPa 0.4 l/m 5.2 km/h (1 Bft) W-NW 0.00 h 0.5 UV-I 87 W/m 1.6 C 1.6 C 8.4 km/h (2 Bft)
06.02.2007 11:00 2.9 C 92 % 1007.5 hPa 0.0 l/m 3.8 km/h (1 Bft) W-NW 0.00 h 0.6 UV-I 76 W/m 1.7 C 2.2 C 6.6 km/h (2 Bft)
06.02.2007 12:00 2.4 C 93 % 1007.0 hPa 0.8 l/m 3.0 km/h (1 Bft) W-NW 0.00 h 0.6 UV-I 65 W/m 1.4 C 2.0 C 5.2 km/h (1 Bft)
06.02.2007 13:00 2.4 C 94 % 1006.6 hPa 0.4 l/m 3.4 km/h (1 Bft) W 0.00 h 0.6 UV-I 87 W/m 1.5 C 1.9 C 6.0 km/h (2 Bft)
06.02.2007 14:00 2.6 C 93 % 1006.1 hPa 0.0 l/m 5.6 km/h (1 Bft) W-NW 0.00 h 0.6 UV-I 87 W/m 1.6 C 1.3 C 9.2 km/h (2 Bft)
06.02.2007 15:00 2.9 C 90 % 1006.0 hPa 0.0 l/m 8.7 km/h (2 Bft) W-NW 0.00 h 0.5 UV-I 66 W/m 1.5 C 0.6 C 13.3 km/h (3 Bft)
06.02.2007 16:00 3.1 C 89 % 1005.9 hPa 0.0 l/m 7.3 km/h (2 Bft) W-NW 0.00 h 0.0 UV-I 26 W/m 1.4 C 1.1 C 11.6 km/h (2 Bft)
06.02.2007 17:00 3.0 C 88 % 1005.7 hPa 0.0 l/m 10.0 km/h (2 Bft) W 0.00 h 0.0 UV-I 16 W/m 1.2 C 0.4 C 16.1 km/h (3 Bft)
06.02.2007 18:00 2.6 C 88 % 1005.8 hPa 0.0 l/m 6.3 km/h (2 Bft) W 0.00 h 0.0 UV-I 0 W/m 0.8 C 1.0 C 9.8 km/h (2 Bft)
06.02.2007 19:00 2.0 C 90 % 1005.8 hPa 0.0 l/m 2.8 km/h (1 Bft) W-NW 0.00 h 0.0 UV-I 0 W/m 0.4 C 1.5 C 4.8 km/h (1 Bft)
06.02.2007 20:00 1.3 C 92 % 1005.7 hPa 0.0 l/m 1.1 km/h (0 Bft) S-SO 0.00 h 0.0 UV-I 0 W/m 0.3 C 1.3 C 2.3 km/h (1 Bft)
06.02.2007 21:00 1.2 C 94 % 1005.6 hPa 0.0 l/m 1.7 km/h (1 Bft) O-SO 0.00 h 0.0 UV-I 0 W/m 0.4 C 1.2 C 3.1 km/h (1 Bft)
06.02.2007 22:00 1.3 C 95 % 1005.2 hPa 0.0 l/m 0.7 km/h (0 Bft) O-SO 0.00 h 0.0 UV-I 0 W/m 0.6 C 1.3 C 1.4 km/h (1 Bft)
06.02.2007 23:00 1.4 C 96 % 1004.8 hPa 0.0 l/m 0.6 km/h (0 Bft) O 0.00 h 0.0 UV-I 0 W/m 0.8 C 1.4 C 1.7 km/h (1 Bft)
07.02.2007 00:00 1.6 C 96 % 1004.5 hPa 0.0 l/m 0.1 km/h (0 Bft) O 0.00 h 0.0 UV-I 0 W/m 1.0 C 1.6 C 0.4 km/h (0 Bft)
07.02.2007 01:00 1.7 C 97 % 1004.1 hPa 0.0 l/m 0.3 km/h (0 Bft) O 0.00 h 0.0 UV-I 0 W/m 1.2 C 1.7 C 0.8 km/h (0 Bft)
07.02.2007 02:00 1.8 C 97 % 1003.8 hPa 0.0 l/m 0.8 km/h (0 Bft) O 0.00 h 0.0 UV-I 0 W/m 1.3 C 1.8 C 2.2 km/h (1 Bft)
07.02.2007 03:00 2.0 C 95 % 1003.3 hPa 0.0 l/m 1.2 km/h (1 Bft) O-SO 0.00 h 0.0 UV-I 0 W/m 1.3 C 2.0 C 3.1 km/h (1 Bft)
07.02.2007 04:00 2.0 C 96 % 1002.7 hPa 0.0 l/m 0.9 km/h (0 Bft) O-SO 0.00 h 0.0 UV-I 0 W/m 1.4 C 2.0 C 2.6 km/h (1 Bft)
07.02.2007 05:00 1.9 C 96 % 1002.5 hPa 0.0 l/m 1.0 km/h (0 Bft) S-SO 0.00 h 0.0 UV-I 0 W/m 1.4 C 1.9 C 2.4 km/h (1 Bft)
07.02.2007 06:00 2.0 C 96 % 1002.5 hPa 0.0 l/m 1.2 km/h (1 Bft) O-SO 0.00 h 0.0 UV-I 0 W/m 1.4 C 2.0 C 2.9 km/h (1 Bft)
07.02.2007 07:00 2.0 C 96 % 1002.3 hPa 0.0 l/m 2.4 km/h (1 Bft) SO 0.00 h 0.0 UV-I 0 W/m 1.4 C 2.0 C 4.2 km/h (1 Bft)
07.02.2007 08:00 2.1 C 96 % 1002.3 hPa 0.0 l/m 1.0 km/h (0 Bft) O 0.00 h 0.0 UV-I 21 W/m 1.5 C 2.1 C 2.3 km/h (1 Bft)
07.02.2007 09:00 2.7 C 94 % 1002.0 hPa 0.0 l/m 0.0 km/h (0 Bft) N 0.00 h 0.5 UV-I 69 W/m 1.9 C 2.7 C 0.2 km/h (0 Bft)
07.02.2007 10:00 3.4 C 92 % 1001.9 hPa 0.0 l/m 0.2 km/h (0 Bft) O 0.00 h 0.6 UV-I 97 W/m 2.2 C 3.4 C 0.7 km/h (0 Bft)
07.02.2007 11:00 3.8 C 90 % 1001.5 hPa 0.0 l/m 0.3 km/h (0 Bft) O 0.00 h 0.8 UV-I 112 W/m 2.4 C 3.8 C 1.2 km/h (1 Bft)
07.02.2007 12:00 4.3 C 91 % 1001.1 hPa 0.0 l/m 0.1 km/h (0 Bft) NO 0.00 h 0.6 UV-I 78 W/m 3.0 C 4.3 C 0.8 km/h (0 Bft)
07.02.2007 13:00 4.8 C 92 % 1000.6 hPa 0.2 l/m 0.2 km/h (0 Bft) NO 0.00 h 0.7 UV-I 90 W/m 3.7 C 4.8 C 0.7 km/h (0 Bft)
07.02.2007 14:00 5.3 C 91 % 1000.1 hPa 0.0 l/m 0.7 km/h (0 Bft) SW 0.00 h 0.6 UV-I 79 W/m 3.9 C 5.3 C 2.1 km/h (1 Bft)
07.02.2007 15:00 5.8 C 87 % 999.9 hPa 0.0 l/m 1.2 km/h (1 Bft) S-SO 0.00 h 0.5 UV-I 64 W/m 3.9 C 5.8 C 3.4 km/h (1 Bft)
07.02.2007 16:00 6.0 C 85 % 999.6 hPa 0.0 l/m 2.2 km/h (1 Bft) S-SO 0.13 h 0.0 UV-I 64 W/m 3.7 C 5.9 C 5.1 km/h (1 Bft)
07.02.2007 17:00 5.4 C 86 % 999.6 hPa 0.0 l/m 0.5 km/h (0 Bft) SO 0.15 h 0.0 UV-I 22 W/m 3.3 C 5.4 C 1.5 km/h (1 Bft)
07.02.2007 18:00 4.5 C 91 % 999.8 hPa 0.0 l/m 0.2 km/h (0 Bft) O-SO 0.00 h 0.0 UV-I 0 W/m 3.2 C 4.5 C 0.7 km/h (0 Bft)
07.02.2007 19:00 4.1 C 95 % 1000.4 hPa 0.0 l/m 0.4 km/h (0 Bft) O-SO 0.00 h 0.0 UV-I 0 W/m 3.4 C 4.1 C 0.9 km/h (0 Bft)
07.02.2007 20:00 3.9 C 97 % 1000.7 hPa 0.2 l/m 1.3 km/h (1 Bft) O-SO 0.00 h 0.0 UV-I 0 W/m 3.4 C 3.9 C 2.1 km/h (1 Bft)
07.02.2007 21:00 3.7 C 97 % 1000.5 hPa 0.2 l/m 1.4 km/h (1 Bft) O-SO 0.00 h 0.0 UV-I 0 W/m 3.4 C 3.7 C 2.6 km/h (1 Bft)
07.02.2007 22:00 4.2 C 96 % 1000.5 hPa 0.0 l/m 0.4 km/h (0 Bft) S-SO 0.00 h 0.0 UV-I 0 W/m 3.6 C 4.2 C 1.7 km/h (1 Bft)
07.02.2007 23:00 4.6 C 95 % 1000.5 hPa 0.0 l/m 2.7 km/h (1 Bft) S-SW 0.00 h 0.0 UV-I 0 W/m 3.8 C 4.2 C 5.7 km/h (1 Bft)
08.02.2007 00:00 4.5 C 97 % 1000.5 hPa 0.0 l/m 0.3 km/h (0 Bft) NW 0.00 h 0.0 UV-I 0 W/m 4.0 C 4.5 C 1.1 km/h (0 Bft)
08.02.2007 01:00 4.4 C 97 % 1000.6 hPa 0.2 l/m 0.5 km/h (0 Bft) SW 0.00 h 0.0 UV-I 0 W/m 4.0 C 4.4 C 1.4 km/h (1 Bft)
08.02.2007 02:00 4.8 C 96 % 1000.6 hPa 0.0 l/m 1.0 km/h (0 Bft) SO 0.00 h 0.0 UV-I 0 W/m 4.2 C 4.7 C 2.2 km/h (1 Bft)
08.02.2007 03:00 4.8 C 95 % 1000.4 hPa 0.0 l/m 1.2 km/h (1 Bft) S 0.00 h 0.0 UV-I 0 W/m 4.1 C 4.8 C 3.0 km/h (1 Bft)
08.02.2007 04:00 5.0 C 92 % 1000.3 hPa 0.0 l/m 1.1 km/h (1 Bft) S-SW 0.00 h 0.0 UV-I 0 W/m 3.8 C 5.0 C 2.5 km/h (1 Bft)
08.02.2007 05:00 4.5 C 92 % 1000.4 hPa 0.0 l/m 3.4 km/h (1 Bft) S-SO 0.00 h 0.0 UV-I 0 W/m 3.4 C 4.0 C 5.3 km/h (1 Bft)
08.02.2007 06:00 3.4 C 95 % 1000.0 hPa 0.0 l/m 1.0 km/h (0 Bft) S-SO 0.00 h 0.0 UV-I 0 W/m 2.6 C 3.4 C 2.1 km/h (1 Bft)
08.02.2007 07:00 3.6 C 93 % 999.4 hPa 0.0 l/m 2.0 km/h (1 Bft) S-SO 0.00 h 0.0 UV-I 9 W/m 2.5 C 3.5 C 3.6 km/h (1 Bft)
08.02.2007 08:00 3.9 C 91 % 998.7 hPa 0.0 l/m 1.9 km/h (1 Bft) SO 0.00 h 0.0 UV-I 29 W/m 2.6 C 3.8 C 3.7 km/h (1 Bft)
08.02.2007 09:00 4.5 C 88 % 998.2 hPa 0.2 l/m 0.5 km/h (0 Bft) SO 0.00 h 0.0 UV-I 25 W/m 2.8 C 4.5 C 1.5 km/h (1 Bft)
08.02.2007 10:00 4.5 C 89 % 998.5 hPa 2.2 l/m 3.2 km/h (1 Bft) S-SO 0.00 h 0.0 UV-I 16 W/m 2.9 C 4.2 C 6.5 km/h (2 Bft)
08.02.2007 11:00 4.1 C 92 % 998.7 hPa 1.0 l/m 6.8 km/h (2 Bft) S 0.00 h 0.6 UV-I 50 W/m 3.0 C 2.7 C 13.8 km/h (3 Bft)
08.02.2007 12:00 4.5 C 91 % 998.7 hPa 0.0 l/m 7.7 km/h (2 Bft) S-SW 0.00 h 0.6 UV-I 66 W/m 3.1 C 2.7 C 15.3 km/h (3 Bft)
08.02.2007 13:00 6.1 C 87 % 998.7 hPa 0.0 l/m 7.8 km/h (2 Bft) SW 0.00 h 0.7 UV-I 83 W/m 4.0 C 4.6 C 16.1 km/h (3 Bft)
08.02.2007 14:00 7.0 C 84 % 998.7 hPa 0.0 l/m 4.2 km/h (1 Bft) SW 0.00 h 0.6 UV-I 47 W/m 4.5 C 6.5 C 7.6 km/h (2 Bft)
08.02.2007 15:00 7.6 C 79 % 999.1 hPa 0.0 l/m 8.0 km/h (2 Bft) W-SW 0.00 h 0.5 UV-I 72 W/m 4.2 C 6.3 C 13.6 km/h (3 Bft)
08.02.2007 16:00 8.4 C 69 % 999.2 hPa 0.2 l/m 9.6 km/h (2 Bft) W 0.03 h 0.5 UV-I 62 W/m 3.0 C 7.0 C 15.2 km/h (3 Bft)
08.02.2007 17:00 6.8 C 81 % 999.5 hPa 0.0 l/m 3.9 km/h (1 Bft) S 0.00 h 0.0 UV-I 15 W/m 3.7 C 6.5 C 7.1 km/h (2 Bft)
08.02.2007 18:00 6.5 C 82 % 1000.1 hPa 0.0 l/m 3.6 km/h (1 Bft) SW 0.00 h 0.0 UV-I 0 W/m 3.6 C 6.2 C 7.2 km/h (2 Bft)
08.02.2007 19:00 6.3 C 82 % 1000.3 hPa 0.0 l/m 4.0 km/h (1 Bft) S 0.00 h 0.0 UV-I 0 W/m 3.4 C 5.8 C 8.0 km/h (2 Bft)
08.02.2007 20:00 6.1 C 87 % 1000.0 hPa 0.0 l/m 3.7 km/h (1 Bft) S 0.00 h 0.0 UV-I 0 W/m 4.1 C 5.7 C 6.8 km/h (2 Bft)
08.02.2007 21:00 5.0 C 93 % 1000.7 hPa 3.2 l/m 10.7 km/h (2 Bft) W-NW 0.00 h 0.0 UV-I 0 W/m 3.9 C 2.9 C 16.4 km/h (3 Bft)
08.02.2007 22:00 3.5 C 93 % 1002.7 hPa 0.8 l/m 11.8 km/h (2 Bft) W 0.00 h 0.0 UV-I 0 W/m 2.5 C 0.8 C 18.6 km/h (3 Bft)
08.02.2007 23:00 4.1 C 91 % 1003.7 hPa 0.0 l/m 19.6 km/h (3 Bft) W 0.00 h 0.0 UV-I 0 W/m 2.7 C -0.0 C 28.7 km/h (4 Bft)
09.02.2007 00:00 4.1 C 89 % 1004.3 hPa 0.0 l/m 7.9 km/h (2 Bft) W 0.00 h 0.0 UV-I 0 W/m 2.5 C 2.3 C 12.4 km/h (3 Bft)
09.02.2007 01:00 3.7 C 89 % 1005.0 hPa 0.0 l/m 2.0 km/h (1 Bft) SO 0.00 h 0.0 UV-I 0 W/m 2.2 C 3.6 C 4.1 km/h (1 Bft)
09.02.2007 02:00 3.5 C 88 % 1005.0 hPa 0.0 l/m 1.5 km/h (1 Bft) S-SO 0.00 h 0.0 UV-I 0 W/m 1.7 C 3.4 C 2.9 km/h (1 Bft)
09.02.2007 03:00 2.6 C 91 % 1004.9 hPa 0.0 l/m 0.0 km/h (0 Bft) N 0.00 h 0.0 UV-I 0 W/m 1.2 C 2.6 C 0.2 km/h (0 Bft)
09.02.2007 04:00 1.8 C 93 % 1004.8 hPa 0.0 l/m 0.4 km/h (0 Bft) O-SO 0.00 h 0.0 UV-I 0 W/m 0.8 C 1.8 C 1.4 km/h (1 Bft)
09.02.2007 05:00 0.8 C 94 % 1005.1 hPa 0.0 l/m 0.1 km/h (0 Bft) O-SO 0.00 h 0.0 UV-I 0 W/m -0.1 C 0.8 C 0.4 km/h (0 Bft)
09.02.2007 06:00 0.4 C 96 % 1005.3 hPa 0.0 l/m 0.4 km/h (0 Bft) O-SO 0.00 h 0.0 UV-I 0 W/m -0.2 C 0.4 C 1.0 km/h (0 Bft)
09.02.2007 07:00 0.2 C 97 % 1006.2 hPa 0.0 l/m 1.5 km/h (1 Bft) O-SO 0.10 h 0.0 UV-I 12 W/m -0.2 C 0.2 C 2.9 km/h (1 Bft)
09.02.2007 08:00 0.5 C 98 % 1006.8 hPa 0.0 l/m 0.6 km/h (0 Bft) O-SO 0.07 h 0.0 UV-I 28 W/m 0.1 C 0.5 C 1.7 km/h (1 Bft)
09.02.2007 09:00 0.9 C 98 % 1007.1 hPa 0.0 l/m 1.3 km/h (1 Bft) O-SO 0.00 h 0.5 UV-I 63 W/m 0.7 C 0.9 C 2.9 km/h (1 Bft)
09.02.2007 10:00 1.7 C 99 % 1007.0 hPa 0.0 l/m 2.0 km/h (1 Bft) O-SO 0.00 h 0.8 UV-I 164 W/m 1.6 C 1.5 C 3.9 km/h (1 Bft)
09.02.2007 11:00 3.6 C 97 % 1006.8 hPa 0.0 l/m 1.7 km/h (1 Bft) NW 0.65 h 1.3 UV-I 318 W/m 3.2 C 3.6 C 3.2 km/h (1 Bft)
09.02.2007 12:00 6.0 C 85 % 1006.6 hPa 0.0 l/m 1.8 km/h (1 Bft) N-NW 1.00 h 1.6 UV-I 420 W/m 3.7 C 5.9 C 3.8 km/h (1 Bft)
09.02.2007 13:00 8.3 C 71 % 1006.5 hPa 0.0 l/m 1.8 km/h (1 Bft) N-NW 1.00 h 1.6 UV-I 407 W/m 3.4 C 8.2 C 3.7 km/h (1 Bft)
09.02.2007 14:00 9.4 C 62 % 1006.2 hPa 0.0 l/m 2.6 km/h (1 Bft) W-NW 1.00 h 1.2 UV-I 348 W/m 2.6 C 9.4 C 4.5 km/h (1 Bft)
09.02.2007 15:00 9.9 C 61 % 1006.3 hPa 0.0 l/m 1.2 km/h (1 Bft) W 0.85 h 0.8 UV-I 218 W/m 2.8 C 9.9 C 2.7 km/h (1 Bft)
09.02.2007 16:00 9.6 C 63 % 1007.0 hPa 0.0 l/m 0.5 km/h (0 Bft) S-SO 0.35 h 0.5 UV-I 93 W/m 2.8 C 9.6 C 1.5 km/h (1 Bft)
09.02.2007 17:00 8.5 C 74 % 1007.9 hPa 0.0 l/m 0.3 km/h (0 Bft) S-SO 0.20 h 0.0 UV-I 21 W/m 4.1 C 8.5 C 0.8 km/h (0 Bft)
09.02.2007 18:00 6.4 C 82 % 1008.7 hPa 0.0 l/m 1.8 km/h (1 Bft) O-SO 0.00 h 0.0 UV-I 0 W/m 3.5 C 6.3 C 2.9 km/h (1 Bft)
09.02.2007 19:00 5.0 C 86 % 1009.4 hPa 0.0 l/m 0.5 km/h (0 Bft) O-NO 0.00 h 0.0 UV-I 0 W/m 2.9 C 5.0 C 1.5 km/h (1 Bft)
09.02.2007 20:00 3.8 C 89 % 1009.8 hPa 0.0 l/m 0.9 km/h (0 Bft) O-NO 0.00 h 0.0 UV-I 0 W/m 2.2 C 3.8 C 1.9 km/h (1 Bft)
09.02.2007 21:00 2.5 C 91 % 1010.0 hPa 0.0 l/m 3.2 km/h (1 Bft) O-SO 0.00 h 0.0 UV-I 0 W/m 1.3 C 2.0 C 4.8 km/h (1 Bft)
09.02.2007 22:00 2.1 C 91 % 1009.6 hPa 0.0 l/m 2.3 km/h (1 Bft) O 0.00 h 0.0 UV-I 0 W/m 0.9 C 1.9 C 3.6 km/h (1 Bft)
09.02.2007 23:00 1.2 C 94 % 1009.0 hPa 0.0 l/m 0.3 km/h (0 Bft) O-SO 0.00 h 0.0 UV-I 0 W/m 0.4 C 1.2 C 1.0 km/h (0 Bft)
10.02.2007 00:00 0.8 C 96 % 1008.8 hPa 0.0 l/m 0.3 km/h (0 Bft) O 0.00 h 0.0 UV-I 0 W/m 0.2 C 0.8 C 0.8 km/h (0 Bft)
10.02.2007 01:00 0.2 C 97 % 1008.3 hPa 0.0 l/m 0.4 km/h (0 Bft) O 0.00 h 0.0 UV-I 0 W/m -0.1 C 0.2 C 0.9 km/h (0 Bft)
10.02.2007 02:00 0.0 C 98 % 1007.9 hPa 0.0 l/m 0.5 km/h (0 Bft) O-SO 0.00 h 0.0 UV-I 0 W/m -0.3 C 0.0 C 0.8 km/h (0 Bft)
10.02.2007 03:00 -0.2 C 99 % 1007.4 hPa 0.0 l/m 0.3 km/h (0 Bft) O-SO 0.00 h 0.0 UV-I 0 W/m -0.4 C -0.2 C 0.7 km/h (0 Bft)
10.02.2007 04:00 -0.5 C 99 % 1007.3 hPa 0.0 l/m 0.4 km/h (0 Bft) O-SO 0.00 h 0.0 UV-I 0 W/m -0.6 C -0.5 C 0.9 km/h (0 Bft)
10.02.2007 05:00 -0.5 C 99 % 1007.3 hPa 0.0 l/m 0.6 km/h (0 Bft) O-SO 0.00 h 0.0 UV-I 0 W/m -0.6 C -0.5 C 1.6 km/h (1 Bft)
10.02.2007 06:00 -0.6 C 99 % 1007.3 hPa 0.0 l/m 0.9 km/h (0 Bft) O-SO 0.00 h 0.0 UV-I 0 W/m -0.7 C -0.6 C 2.2 km/h (1 Bft)
10.02.2007 07:00 -0.1 C 100 % 1007.5 hPa 0.0 l/m 0.0 km/h (0 Bft) N 0.12 h 0.0 UV-I 10 W/m -0.1 C -0.1 C 0.2 km/h (0 Bft)
10.02.2007 08:00 0.2 C 100 % 1008.0 hPa 0.0 l/m 0.3 km/h (0 Bft) SO 0.00 h 0.0 UV-I 43 W/m 0.2 C 0.2 C 0.8 km/h (0 Bft)
10.02.2007 09:00 1.2 C 100 % 1008.0 hPa 0.0 l/m 0.5 km/h (0 Bft) O-SO 0.13 h 0.5 UV-I 102 W/m 1.2 C 1.2 C 1.9 km/h (1 Bft)
10.02.2007 10:00 2.2 C 100 % 1008.1 hPa 0.0 l/m 1.0 km/h (0 Bft) SO 0.07 h 0.7 UV-I 135 W/m 2.2 C 2.2 C 2.6 km/h (1 Bft)
10.02.2007 11:00 3.4 C 93 % 1008.2 hPa 0.0 l/m 1.3 km/h (1 Bft) W 0.00 h 1.0 UV-I 171 W/m 2.4 C 3.4 C 2.9 km/h (1 Bft)
10.02.2007 12:00 4.2 C 90 % 1008.4 hPa 0.0 l/m 0.5 km/h (0 Bft) S-SO 0.00 h 0.8 UV-I 93 W/m 2.8 C 4.2 C 1.9 km/h (1 Bft)
10.02.2007 13:00 4.6 C 91 % 1008.4 hPa 0.2 l/m 0.8 km/h (0 Bft) S-SO 0.00 h 0.7 UV-I 87 W/m 3.2 C 4.6 C 2.6 km/h (1 Bft)
10.02.2007 14:00 4.7 C 91 % 1008.4 hPa 0.2 l/m 1.2 km/h (1 Bft) S-SO 0.00 h 0.6 UV-I 49 W/m 3.4 C 4.7 C 3.3 km/h (1 Bft)
10.02.2007 15:00 5.4 C 89 % 1008.4 hPa 0.0 l/m 2.9 km/h (1 Bft) S-SO 0.00 h 0.5 UV-I 63 W/m 3.6 C 5.2 C 5.7 km/h (1 Bft)
10.02.2007 16:00 6.1 C 85 % 1008.8 hPa 0.0 l/m 3.9 km/h (1 Bft) S-SW 0.00 h 0.5 UV-I 42 W/m 3.7 C 5.6 C 8.6 km/h (2 Bft)
10.02.2007 17:00 5.6 C 88 % 1009.8 hPa 0.2 l/m 2.4 km/h (1 Bft) SW 0.00 h 0.0 UV-I 7 W/m 3.8 C 5.3 C 5.2 km/h (1 Bft)
10.02.2007 18:00 5.3 C 93 % 1010.6 hPa 0.4 l/m 2.7 km/h (1 Bft) S 0.00 h 0.0 UV-I 0 W/m 4.2 C 5.1 C 6.2 km/h (2 Bft)
10.02.2007 19:00 5.3 C 92 % 1011.3 hPa 0.0 l/m 2.8 km/h (1 Bft) S-SO 0.00 h 0.0 UV-I 0 W/m 4.1 C 5.1 C 6.3 km/h (2 Bft)
10.02.2007 20:00 5.3 C 92 % 1012.0 hPa 0.2 l/m 1.2 km/h (1 Bft) S 0.00 h 0.0 UV-I 0 W/m 4.1 C 5.3 C 3.6 km/h (1 Bft)
10.02.2007 21:00 5.3 C 91 % 1012.5 hPa 0.0 l/m 1.7 km/h (1 Bft) S-SW 0.00 h 0.0 UV-I 0 W/m 3.9 C 5.2 C 4.2 km/h (1 Bft)
10.02.2007 22:00 5.4 C 90 % 1012.6 hPa 0.0 l/m 2.0 km/h (1 Bft) S-SW 0.00 h 0.0 UV-I 0 W/m 3.9 C 5.3 C 4.8 km/h (1 Bft)
10.02.2007 23:00 5.4 C 91 % 1012.8 hPa 0.2 l/m 1.6 km/h (1 Bft) S-SW 0.00 h 0.0 UV-I 0 W/m 4.1 C 5.3 C 4.1 km/h (1 Bft)
11.02.2007 00:00 5.4 C 90 % 1012.8 hPa 0.0 l/m 4.2 km/h (1 Bft) S-SO 0.00 h 0.0 UV-I 0 W/m 3.9 C 4.8 C 7.7 km/h (2 Bft)
11.02.2007 01:00 5.1 C 91 % 1012.4 hPa 0.0 l/m 0.9 km/h (0 Bft) SW 0.00 h 0.0 UV-I 0 W/m 3.8 C 5.1 C 2.9 km/h (1 Bft)
11.02.2007 02:00 5.3 C 89 % 1012.3 hPa 0.0 l/m 1.2 km/h (1 Bft) S 0.00 h 0.0 UV-I 0 W/m 3.7 C 5.3 C 3.2 km/h (1 Bft)
11.02.2007 03:00 5.3 C 88 % 1011.6 hPa 0.0 l/m 1.2 km/h (1 Bft) S-SO 0.00 h 0.0 UV-I 0 W/m 3.5 C 5.3 C 3.2 km/h (1 Bft)
11.02.2007 04:00 5.3 C 87 % 1011.0 hPa 0.0 l/m 2.4 km/h (1 Bft) S-SO 0.00 h 0.0 UV-I 0 W/m 3.2 C 5.1 C 4.9 km/h (1 Bft)
11.02.2007 05:00 4.8 C 88 % 1010.3 hPa 0.0 l/m 5.2 km/h (1 Bft) S-SO 0.00 h 0.0 UV-I 0 W/m 3.0 C 3.9 C 10.5 km/h (2 Bft)
11.02.2007 06:00 4.8 C 86 % 1009.5 hPa 0.0 l/m 5.7 km/h (1 Bft) S-SO 0.00 h 0.0 UV-I 0 W/m 2.6 C 3.7 C 8.9 km/h (2 Bft)
11.02.2007 07:00 4.5 C 86 % 1008.7 hPa 0.0 l/m 4.7 km/h (1 Bft) O-SO 0.00 h 0.0 UV-I 6 W/m 2.3 C 3.8 C 7.0 km/h (2 Bft)
11.02.2007 08:00 5.0 C 83 % 1007.8 hPa 0.0 l/m 9.9 km/h (2 Bft) S-SO 0.00 h 0.0 UV-I 21 W/m 2.3 C 2.7 C 16.6 km/h (3 Bft)
11.02.2007 09:00 5.3 C 83 % 1007.3 hPa 0.2 l/m 7.1 km/h (2 Bft) S 0.00 h 0.0 UV-I 18 W/m 2.6 C 3.8 C 13.7 km/h (3 Bft)
11.02.2007 10:00 5.1 C 90 % 1007.2 hPa 1.8 l/m 8.0 km/h (2 Bft) SW 0.00 h 0.7 UV-I 41 W/m 3.7 C 3.4 C 15.5 km/h (3 Bft)
11.02.2007 11:00 6.9 C 86 % 1007.3 hPa 0.4 l/m 10.2 km/h (2 Bft) SW 0.17 h 1.0 UV-I 204 W/m 4.7 C 5.0 C 18.9 km/h (3 Bft)
11.02.2007 12:00 6.6 C 90 % 1007.8 hPa 4.6 l/m 11.0 km/h (2 Bft) SW 0.00 h 0.6 UV-I 36 W/m 5.1 C 4.7 C 18.2 km/h (3 Bft)
11.02.2007 13:00 5.4 C 95 % 1008.1 hPa 2.4 l/m 8.4 km/h (2 Bft) W 0.08 h 1.1 UV-I 88 W/m 4.7 C 3.7 C 13.8 km/h (3 Bft)
11.02.2007 14:00 7.5 C 90 % 1007.0 hPa 0.0 l/m 4.6 km/h (1 Bft) W-SW 0.42 h 1.0 UV-I 244 W/m 5.9 C 6.9 C 8.2 km/h (2 Bft)
11.02.2007 15:00 8.9 C 84 % 1005.5 hPa 0.0 l/m 5.4 km/h (1 Bft) SW 0.30 h 0.7 UV-I 161 W/m 6.4 C 8.2 C 11.1 km/h (2 Bft)
11.02.2007 16:00 8.4 C 81 % 1005.4 hPa 0.8 l/m 19.2 km/h (3 Bft) W 0.02 h 0.0 UV-I 37 W/m 5.4 C 5.7 C 31.0 km/h (5 Bft)
11.02.2007 17:00 8.1 C 83 % 1006.5 hPa 0.0 l/m 6.3 km/h (2 Bft) W-NW 0.00 h 0.0 UV-I 12 W/m 5.4 C 7.2 C 10.7 km/h (2 Bft)
11.02.2007 18:00 8.7 C 76 % 1006.8 hPa 0.2 l/m 12.7 km/h (3 Bft) W-SW 0.00 h 0.0 UV-I 0 W/m 4.7 C 6.9 C 20.5 km/h (4 Bft)
11.02.2007 19:00 8.4 C 79 % 1007.5 hPa 1.4 l/m 10.5 km/h (2 Bft) W-NW 0.00 h 0.0 UV-I 0 W/m 5.0 C 6.8 C 16.8 km/h (3 Bft)
11.02.2007 20:00 7.0 C 90 % 1008.3 hPa 0.2 l/m 5.6 km/h (1 Bft) W-SW 0.00 h 0.0 UV-I 0 W/m 5.4 C 6.2 C 9.6 km/h (2 Bft)
11.02.2007 21:00 8.4 C 74 % 1007.6 hPa 0.0 l/m 10.4 km/h (2 Bft) W-SW 0.00 h 0.0 UV-I 0 W/m 3.9 C 6.8 C 17.5 km/h (3 Bft)
11.02.2007 22:00 9.4 C 65 % 1007.6 hPa 0.0 l/m 7.6 km/h (2 Bft) W-SW 0.00 h 0.0 UV-I 0 W/m 3.2 C 8.4 C 13.0 km/h (3 Bft)
11.02.2007 23:00 9.2 C 66 % 1007.5 hPa 0.0 l/m 4.2 km/h (1 Bft) W-NW 0.00 h 0.0 UV-I 0 W/m 3.3 C 8.8 C 7.2 km/h (2 Bft)
Min-Datum _ 05.02.07 09.02.07 08.02.07 - 05.02.07 - - - - 05.02.07 05.02.07 05.02.07
_ Min-Zeit 08:03 15:54 09:00 - 00:03 - - - - 07:36 01:04 00:10
Minimum _ -1.5 C 58 % 998.0 hPa - 0.0 km/h (0 Bft) - - - - -2.5 C -4.1 C 0.0 km/h (0 Bft)
Max-Datum _ 09.02.07 09.02.07 05.02.07 11.02.07 11.02.07 - 05.02.07 05.02.07 11.02.07 11.02.07 09.02.07 11.02.07
_ Max-Zeit 15:53 10:55 00:00 12:45 16:27 - 08:00 12:35 11:38 15:29 15:53 16:27
Maximum _ 10.3 C 100 % 1026.4 hPa 4.6 l/m 47.8 km/h
W (6 Bft)
- 0.02 h 1.6 UV-I 591 W/m 7.4 C 10.3 C 73.9 km/h
W (8 Bft)
Durchschnitt _ 4.1 C 89 % 1007.5 hPa #34.2 l/m 3.7 km/h (1 Bft) W #11:20 h 0.8 UV-I 98 W/m 2.3 C 3.5 C 6.6 km/h (2 Bft)
© Kaiko 2007